sensor_id;sensor_type;location;lat;lon;timestamp;P1;durP1;ratioP1;P2;durP2;ratioP2
11004;SDS011;5555;59.622;16.556;2023-04-07T00:02:15;7.77;;;5.10;;
11004;SDS011;5555;59.622;16.556;2023-04-07T00:04:41;6.03;;;4.90;;
11004;SDS011;5555;59.622;16.556;2023-04-07T00:07:06;6.27;;;5.30;;
11004;SDS011;5555;59.622;16.556;2023-04-07T00:09:32;6.57;;;5.00;;
11004;SDS011;5555;59.622;16.556;2023-04-07T00:11:58;6.10;;;5.00;;
11004;SDS011;5555;59.622;16.556;2023-04-07T00:14:26;5.93;;;4.87;;
11004;SDS011;5555;59.622;16.556;2023-04-07T00:16:52;4.70;;;4.20;;
11004;SDS011;5555;59.622;16.556;2023-04-07T00:19:18;5.80;;;5.10;;
11004;SDS011;5555;59.622;16.556;2023-04-07T00:21:43;6.73;;;5.23;;
11004;SDS011;5555;59.622;16.556;2023-04-07T00:24:09;6.00;;;5.20;;
11004;SDS011;5555;59.622;16.556;2023-04-07T00:26:35;6.27;;;4.90;;
11004;SDS011;5555;59.622;16.556;2023-04-07T00:29:01;6.87;;;5.23;;
11004;SDS011;5555;59.622;16.556;2023-04-07T00:31:26;5.67;;;5.10;;
11004;SDS011;5555;59.622;16.556;2023-04-07T00:33:52;6.77;;;4.87;;
11004;SDS011;5555;59.622;16.556;2023-04-07T00:36:18;6.10;;;5.50;;
11004;SDS011;5555;59.622;16.556;2023-04-07T00:38:43;5.30;;;4.80;;
11004;SDS011;5555;59.622;16.556;2023-04-07T00:41:09;4.80;;;4.40;;
11004;SDS011;5555;59.622;16.556;2023-04-07T00:43:35;5.23;;;4.73;;
11004;SDS011;5555;59.622;16.556;2023-04-07T00:46:00;5.27;;;4.70;;
11004;SDS011;5555;59.622;16.556;2023-04-07T00:48:26;4.73;;;4.33;;
11004;SDS011;5555;59.622;16.556;2023-04-07T00:50:51;5.50;;;4.90;;
11004;SDS011;5555;59.622;16.556;2023-04-07T00:53:17;8.83;;;5.07;;
11004;SDS011;5555;59.622;16.556;2023-04-07T00:55:44;5.43;;;4.70;;
11004;SDS011;5555;59.622;16.556;2023-04-07T00:58:09;5.03;;;4.53;;
11004;SDS011;5555;59.622;16.556;2023-04-07T01:00:37;6.47;;;4.63;;
11004;SDS011;5555;59.622;16.556;2023-04-07T01:03:17;4.97;;;4.50;;
11004;SDS011;5555;59.622;16.556;2023-04-07T01:05:49;7.10;;;5.50;;
11004;SDS011;5555;59.622;16.556;2023-04-07T01:08:32;7.50;;;4.80;;
11004;SDS011;5555;59.622;16.556;2023-04-07T01:13:45;6.70;;;5.13;;
11004;SDS011;5555;59.622;16.556;2023-04-07T01:16:20;6.37;;;4.67;;
11004;SDS011;5555;59.622;16.556;2023-04-07T01:18:51;5.50;;;4.30;;
11004;SDS011;5555;59.622;16.556;2023-04-07T01:21:19;5.30;;;4.80;;
11004;SDS011;5555;59.622;16.556;2023-04-07T01:24:02;5.93;;;5.30;;
11004;SDS011;5555;59.622;16.556;2023-04-07T01:26:32;6.47;;;5.33;;
11004;SDS011;5555;59.622;16.556;2023-04-07T01:31:35;6.03;;;5.33;;
11004;SDS011;5555;59.622;16.556;2023-04-07T01:34:03;5.07;;;4.57;;
11004;SDS011;5555;59.622;16.556;2023-04-07T01:36:30;5.47;;;4.97;;
11004;SDS011;5555;59.622;16.556;2023-04-07T01:38:58;5.90;;;5.30;;
11004;SDS011;5555;59.622;16.556;2023-04-07T01:41:25;5.60;;;5.07;;
11004;SDS011;5555;59.622;16.556;2023-04-07T01:43:52;5.50;;;5.00;;
11004;SDS011;5555;59.622;16.556;2023-04-07T01:46:19;5.57;;;4.70;;
11004;SDS011;5555;59.622;16.556;2023-04-07T01:48:46;6.07;;;5.57;;
11004;SDS011;5555;59.622;16.556;2023-04-07T01:51:12;5.80;;;5.20;;
11004;SDS011;5555;59.622;16.556;2023-04-07T01:53:42;5.43;;;4.93;;
11004;SDS011;5555;59.622;16.556;2023-04-07T01:56:11;5.70;;;5.20;;
11004;SDS011;5555;59.622;16.556;2023-04-07T01:58:37;5.00;;;4.60;;
11004;SDS011;5555;59.622;16.556;2023-04-07T02:01:03;5.63;;;5.13;;
11004;SDS011;5555;59.622;16.556;2023-04-07T02:06:18;5.43;;;4.97;;
11004;SDS011;5555;59.622;16.556;2023-04-07T02:08:48;5.20;;;4.70;;
11004;SDS011;5555;59.622;16.556;2023-04-07T02:11:17;5.20;;;4.80;;
11004;SDS011;5555;59.622;16.556;2023-04-07T02:13:46;5.10;;;4.60;;
11004;SDS011;5555;59.622;16.556;2023-04-07T02:16:12;5.50;;;5.00;;
11004;SDS011;5555;59.622;16.556;2023-04-07T02:18:38;5.27;;;4.83;;
11004;SDS011;5555;59.622;16.556;2023-04-07T02:21:05;5.47;;;4.93;;
11004;SDS011;5555;59.622;16.556;2023-04-07T02:23:34;5.50;;;5.00;;
11004;SDS011;5555;59.622;16.556;2023-04-07T02:25:59;5.60;;;5.07;;
11004;SDS011;5555;59.622;16.556;2023-04-07T02:28:25;5.13;;;4.67;;
11004;SDS011;5555;59.622;16.556;2023-04-07T02:30:51;7.27;;;5.27;;
11004;SDS011;5555;59.622;16.556;2023-04-07T02:33:16;5.67;;;5.17;;
11004;SDS011;5555;59.622;16.556;2023-04-07T02:35:42;5.93;;;5.43;;
11004;SDS011;5555;59.622;16.556;2023-04-07T02:38:08;5.57;;;5.07;;
11004;SDS011;5555;59.622;16.556;2023-04-07T02:40:33;7.57;;;5.23;;
11004;SDS011;5555;59.622;16.556;2023-04-07T02:43:00;6.27;;;5.03;;
11004;SDS011;5555;59.622;16.556;2023-04-07T02:45:26;6.20;;;5.60;;
11004;SDS011;5555;59.622;16.556;2023-04-07T02:47:52;6.70;;;6.03;;
11004;SDS011;5555;59.622;16.556;2023-04-07T02:50:18;6.40;;;5.80;;
11004;SDS011;5555;59.622;16.556;2023-04-07T02:52:43;6.83;;;6.23;;
11004;SDS011;5555;59.622;16.556;2023-04-07T02:55:09;6.33;;;5.73;;
11004;SDS011;5555;59.622;16.556;2023-04-07T02:57:35;6.27;;;5.50;;
11004;SDS011;5555;59.622;16.556;2023-04-07T03:00:01;6.60;;;5.90;;
11004;SDS011;5555;59.622;16.556;2023-04-07T03:02:26;6.90;;;5.77;;
11004;SDS011;5555;59.622;16.556;2023-04-07T03:04:52;6.30;;;5.70;;
11004;SDS011;5555;59.622;16.556;2023-04-07T03:07:18;6.60;;;5.97;;
11004;SDS011;5555;59.622;16.556;2023-04-07T03:09:44;7.20;;;6.50;;
11004;SDS011;5555;59.622;16.556;2023-04-07T03:12:09;6.93;;;6.23;;
11004;SDS011;5555;59.622;16.556;2023-04-07T03:14:35;6.70;;;6.10;;
11004;SDS011;5555;59.622;16.556;2023-04-07T03:17:01;6.20;;;5.70;;
11004;SDS011;5555;59.622;16.556;2023-04-07T03:19:27;7.60;;;6.80;;
11004;SDS011;5555;59.622;16.556;2023-04-07T03:21:53;7.10;;;5.43;;
11004;SDS011;5555;59.622;16.556;2023-04-07T03:24:19;7.27;;;6.33;;
11004;SDS011;5555;59.622;16.556;2023-04-07T03:26:44;8.40;;;6.67;;
11004;SDS011;5555;59.622;16.556;2023-04-07T03:29:10;6.80;;;6.10;;
11004;SDS011;5555;59.622;16.556;2023-04-07T03:31:36;6.40;;;5.80;;
11004;SDS011;5555;59.622;16.556;2023-04-07T03:34:02;7.53;;;6.63;;
11004;SDS011;5555;59.622;16.556;2023-04-07T03:36:28;8.80;;;7.03;;
11004;SDS011;5555;59.622;16.556;2023-04-07T03:38:55;7.43;;;6.73;;
11004;SDS011;5555;59.622;16.556;2023-04-07T03:41:21;6.87;;;6.17;;
11004;SDS011;5555;59.622;16.556;2023-04-07T03:43:47;7.90;;;6.63;;
11004;SDS011;5555;59.622;16.556;2023-04-07T03:46:12;7.87;;;6.80;;
11004;SDS011;5555;59.622;16.556;2023-04-07T03:48:38;7.47;;;6.67;;
11004;SDS011;5555;59.622;16.556;2023-04-07T03:51:03;8.03;;;7.30;;
11004;SDS011;5555;59.622;16.556;2023-04-07T03:53:29;8.30;;;6.63;;
11004;SDS011;5555;59.622;16.556;2023-04-07T03:55:55;7.83;;;7.13;;
11004;SDS011;5555;59.622;16.556;2023-04-07T03:58:20;8.20;;;7.10;;
11004;SDS011;5555;59.622;16.556;2023-04-07T04:00:46;8.70;;;7.73;;
11004;SDS011;5555;59.622;16.556;2023-04-07T04:03:12;7.53;;;6.63;;
11004;SDS011;5555;59.622;16.556;2023-04-07T04:05:37;9.67;;;7.40;;
11004;SDS011;5555;59.622;16.556;2023-04-07T04:08:04;7.87;;;7.07;;
11004;SDS011;5555;59.622;16.556;2023-04-07T04:10:30;7.87;;;7.07;;
11004;SDS011;5555;59.622;16.556;2023-04-07T04:12:56;9.57;;;7.40;;
11004;SDS011;5555;59.622;16.556;2023-04-07T04:15:24;8.00;;;7.27;;
11004;SDS011;5555;59.622;16.556;2023-04-07T04:17:50;9.20;;;7.60;;
11004;SDS011;5555;59.622;16.556;2023-04-07T04:20:16;7.97;;;6.93;;
11004;SDS011;5555;59.622;16.556;2023-04-07T04:22:42;7.93;;;7.13;;
11004;SDS011;5555;59.622;16.556;2023-04-07T04:25:08;8.67;;;7.63;;
11004;SDS011;5555;59.622;16.556;2023-04-07T04:27:34;7.87;;;7.07;;
11004;SDS011;5555;59.622;16.556;2023-04-07T04:29:59;10.37;;;7.10;;
11004;SDS011;5555;59.622;16.556;2023-04-07T04:32:25;8.73;;;7.10;;
11004;SDS011;5555;59.622;16.556;2023-04-07T04:34:50;8.00;;;6.43;;
11004;SDS011;5555;59.622;16.556;2023-04-07T04:37:16;8.00;;;6.70;;
11004;SDS011;5555;59.622;16.556;2023-04-07T04:39:42;8.30;;;7.40;;
11004;SDS011;5555;59.622;16.556;2023-04-07T04:42:08;8.43;;;6.83;;
11004;SDS011;5555;59.622;16.556;2023-04-07T04:44:33;8.30;;;7.10;;
11004;SDS011;5555;59.622;16.556;2023-04-07T04:46:59;7.90;;;6.77;;
11004;SDS011;5555;59.622;16.556;2023-04-07T04:49:24;8.53;;;7.20;;
11004;SDS011;5555;59.622;16.556;2023-04-07T04:51:50;8.73;;;7.70;;
11004;SDS011;5555;59.622;16.556;2023-04-07T04:54:17;8.77;;;7.10;;
11004;SDS011;5555;59.622;16.556;2023-04-07T04:56:43;8.10;;;7.30;;
11004;SDS011;5555;59.622;16.556;2023-04-07T04:59:09;9.37;;;6.70;;
11004;SDS011;5555;59.622;16.556;2023-04-07T05:01:34;7.33;;;6.63;;
11004;SDS011;5555;59.622;16.556;2023-04-07T05:04:00;7.83;;;7.03;;
11004;SDS011;5555;59.622;16.556;2023-04-07T05:06:26;7.90;;;7.10;;
11004;SDS011;5555;59.622;16.556;2023-04-07T05:08:52;7.40;;;6.70;;
11004;SDS011;5555;59.622;16.556;2023-04-07T05:11:17;8.97;;;7.00;;
11004;SDS011;5555;59.622;16.556;2023-04-07T05:13:43;7.17;;;6.47;;
11004;SDS011;5555;59.622;16.556;2023-04-07T05:16:09;7.70;;;6.87;;
11004;SDS011;5555;59.622;16.556;2023-04-07T05:18:35;8.23;;;7.43;;
11004;SDS011;5555;59.622;16.556;2023-04-07T05:21:00;7.97;;;7.17;;
11004;SDS011;5555;59.622;16.556;2023-04-07T05:23:26;7.07;;;6.30;;
11004;SDS011;5555;59.622;16.556;2023-04-07T05:25:52;11.73;;;6.77;;
11004;SDS011;5555;59.622;16.556;2023-04-07T05:28:17;6.93;;;6.23;;
11004;SDS011;5555;59.622;16.556;2023-04-07T05:30:43;7.13;;;6.40;;
11004;SDS011;5555;59.622;16.556;2023-04-07T05:33:09;7.17;;;6.23;;
11004;SDS011;5555;59.622;16.556;2023-04-07T05:35:35;7.23;;;6.50;;
11004;SDS011;5555;59.622;16.556;2023-04-07T05:38:01;7.00;;;6.40;;
11004;SDS011;5555;59.622;16.556;2023-04-07T05:40:27;7.47;;;6.67;;
11004;SDS011;5555;59.622;16.556;2023-04-07T05:42:54;7.43;;;6.73;;
11004;SDS011;5555;59.622;16.556;2023-04-07T05:45:20;6.70;;;6.10;;
11004;SDS011;5555;59.622;16.556;2023-04-07T05:47:45;8.30;;;6.90;;
11004;SDS011;5555;59.622;16.556;2023-04-07T05:50:14;7.57;;;6.50;;
11004;SDS011;5555;59.622;16.556;2023-04-07T05:52:40;7.20;;;6.50;;
11004;SDS011;5555;59.622;16.556;2023-04-07T05:55:05;6.97;;;6.30;;
11004;SDS011;5555;59.622;16.556;2023-04-07T05:57:31;7.13;;;6.43;;
11004;SDS011;5555;59.622;16.556;2023-04-07T05:59:58;6.40;;;5.80;;
11004;SDS011;5555;59.622;16.556;2023-04-07T06:02:23;6.53;;;5.93;;
11004;SDS011;5555;59.622;16.556;2023-04-07T06:04:49;6.63;;;5.97;;
11004;SDS011;5555;59.622;16.556;2023-04-07T06:07:15;6.33;;;5.73;;
11004;SDS011;5555;59.622;16.556;2023-04-07T06:09:40;6.50;;;5.90;;
11004;SDS011;5555;59.622;16.556;2023-04-07T06:12:06;6.50;;;5.53;;
11004;SDS011;5555;59.622;16.556;2023-04-07T06:14:33;6.10;;;5.30;;
11004;SDS011;5555;59.622;16.556;2023-04-07T06:16:59;5.30;;;4.90;;
11004;SDS011;5555;59.622;16.556;2023-04-07T06:19:25;5.30;;;4.90;;
11004;SDS011;5555;59.622;16.556;2023-04-07T06:21:51;5.53;;;5.03;;
11004;SDS011;5555;59.622;16.556;2023-04-07T06:24:17;4.93;;;4.53;;
11004;SDS011;5555;59.622;16.556;2023-04-07T06:26:46;5.07;;;4.67;;
11004;SDS011;5555;59.622;16.556;2023-04-07T06:29:13;3.80;;;3.50;;
11004;SDS011;5555;59.622;16.556;2023-04-07T06:31:39;4.30;;;4.00;;
11004;SDS011;5555;59.622;16.556;2023-04-07T06:34:04;3.30;;;3.10;;
11004;SDS011;5555;59.622;16.556;2023-04-07T06:36:30;4.00;;;3.60;;
11004;SDS011;5555;59.622;16.556;2023-04-07T06:38:57;4.03;;;3.73;;
11004;SDS011;5555;59.622;16.556;2023-04-07T06:41:23;3.90;;;3.40;;
11004;SDS011;5555;59.622;16.556;2023-04-07T06:43:49;3.83;;;3.47;;
11004;SDS011;5555;59.622;16.556;2023-04-07T06:46:15;3.67;;;3.37;;
11004;SDS011;5555;59.622;16.556;2023-04-07T06:48:41;3.67;;;3.37;;
11004;SDS011;5555;59.622;16.556;2023-04-07T06:51:07;3.57;;;3.23;;
11004;SDS011;5555;59.622;16.556;2023-04-07T06:53:33;3.80;;;3.50;;
11004;SDS011;5555;59.622;16.556;2023-04-07T06:56:05;3.53;;;3.23;;
11004;SDS011;5555;59.622;16.556;2023-04-07T06:58:32;3.03;;;2.83;;
11004;SDS011;5555;59.622;16.556;2023-04-07T07:00:59;4.17;;;3.77;;
11004;SDS011;5555;59.622;16.556;2023-04-07T07:03:25;4.20;;;3.43;;
11004;SDS011;5555;59.622;16.556;2023-04-07T07:05:52;3.60;;;3.30;;
11004;SDS011;5555;59.622;16.556;2023-04-07T07:08:20;3.70;;;3.40;;
11004;SDS011;5555;59.622;16.556;2023-04-07T07:10:46;3.20;;;3.00;;
11004;SDS011;5555;59.622;16.556;2023-04-07T07:13:12;3.80;;;3.43;;
11004;SDS011;5555;59.622;16.556;2023-04-07T07:15:37;4.23;;;3.47;;
11004;SDS011;5555;59.622;16.556;2023-04-07T07:18:03;3.73;;;3.43;;
11004;SDS011;5555;59.622;16.556;2023-04-07T07:20:29;4.23;;;3.63;;
11004;SDS011;5555;59.622;16.556;2023-04-07T07:22:54;3.57;;;3.27;;
11004;SDS011;5555;59.622;16.556;2023-04-07T07:25:20;3.80;;;3.50;;
11004;SDS011;5555;59.622;16.556;2023-04-07T07:27:46;3.63;;;3.20;;
11004;SDS011;5555;59.622;16.556;2023-04-07T07:30:17;4.87;;;3.20;;
11004;SDS011;5555;59.622;16.556;2023-04-07T07:32:46;3.60;;;3.30;;
11004;SDS011;5555;59.622;16.556;2023-04-07T07:35:12;3.93;;;3.63;;
11004;SDS011;5555;59.622;16.556;2023-04-07T07:37:37;3.83;;;3.13;;
11004;SDS011;5555;59.622;16.556;2023-04-07T07:40:03;3.60;;;3.30;;
11004;SDS011;5555;59.622;16.556;2023-04-07T07:42:29;3.97;;;3.57;;
11004;SDS011;5555;59.622;16.556;2023-04-07T07:44:55;3.63;;;3.33;;
11004;SDS011;5555;59.622;16.556;2023-04-07T07:47:21;3.43;;;3.13;;
11004;SDS011;5555;59.622;16.556;2023-04-07T07:49:47;4.00;;;3.17;;
11004;SDS011;5555;59.622;16.556;2023-04-07T07:52:13;4.90;;;3.13;;
11004;SDS011;5555;59.622;16.556;2023-04-07T07:54:39;3.53;;;2.80;;
11004;SDS011;5555;59.622;16.556;2023-04-07T07:57:04;3.30;;;3.00;;
11004;SDS011;5555;59.622;16.556;2023-04-07T07:59:30;4.97;;;3.03;;
11004;SDS011;5555;59.622;16.556;2023-04-07T08:01:56;3.33;;;3.00;;
11004;SDS011;5555;59.622;16.556;2023-04-07T08:04:22;3.13;;;2.83;;
11004;SDS011;5555;59.622;16.556;2023-04-07T08:06:49;3.33;;;2.80;;
11004;SDS011;5555;59.622;16.556;2023-04-07T08:09:15;2.90;;;2.70;;
11004;SDS011;5555;59.622;16.556;2023-04-07T08:11:42;3.03;;;2.80;;
11004;SDS011;5555;59.622;16.556;2023-04-07T08:14:07;3.80;;;2.50;;
11004;SDS011;5555;59.622;16.556;2023-04-07T08:16:33;3.70;;;2.30;;
11004;SDS011;5555;59.622;16.556;2023-04-07T08:18:59;4.03;;;2.73;;
11004;SDS011;5555;59.622;16.556;2023-04-07T08:21:24;2.50;;;2.20;;
11004;SDS011;5555;59.622;16.556;2023-04-07T08:23:52;2.70;;;2.50;;
11004;SDS011;5555;59.622;16.556;2023-04-07T08:26:18;4.33;;;2.70;;
11004;SDS011;5555;59.622;16.556;2023-04-07T08:28:45;2.20;;;2.00;;
11004;SDS011;5555;59.622;16.556;2023-04-07T08:31:11;2.97;;;2.27;;
11004;SDS011;5555;59.622;16.556;2023-04-07T08:33:36;2.90;;;2.40;;
11004;SDS011;5555;59.622;16.556;2023-04-07T08:36:02;1.93;;;1.77;;
11004;SDS011;5555;59.622;16.556;2023-04-07T08:38:28;2.67;;;2.10;;
11004;SDS011;5555;59.622;16.556;2023-04-07T08:41:03;1.97;;;1.83;;
11004;SDS011;5555;59.622;16.556;2023-04-07T08:43:38;2.10;;;1.90;;
11004;SDS011;5555;59.622;16.556;2023-04-07T08:46:05;2.33;;;1.90;;
11004;SDS011;5555;59.622;16.556;2023-04-07T08:48:34;3.83;;;2.03;;
11004;SDS011;5555;59.622;16.556;2023-04-07T08:51:06;3.90;;;1.90;;
11004;SDS011;5555;59.622;16.556;2023-04-07T08:53:42;2.20;;;2.00;;
11004;SDS011;5555;59.622;16.556;2023-04-07T08:56:11;1.83;;;1.40;;
11004;SDS011;5555;59.622;16.556;2023-04-07T08:58:38;2.20;;;2.00;;
11004;SDS011;5555;59.622;16.556;2023-04-07T09:01:04;3.00;;;2.10;;
11004;SDS011;5555;59.622;16.556;2023-04-07T09:03:31;3.20;;;1.80;;
11004;SDS011;5555;59.622;16.556;2023-04-07T09:05:59;3.40;;;1.90;;
11004;SDS011;5555;59.622;16.556;2023-04-07T09:08:26;2.60;;;1.43;;
11004;SDS011;5555;59.622;16.556;2023-04-07T09:10:52;5.10;;;1.37;;
11004;SDS011;5555;59.622;16.556;2023-04-07T09:13:18;1.83;;;1.57;;
11004;SDS011;5555;59.622;16.556;2023-04-07T09:15:44;3.20;;;1.40;;
11004;SDS011;5555;59.622;16.556;2023-04-07T09:18:10;1.50;;;1.10;;
11004;SDS011;5555;59.622;16.556;2023-04-07T09:23:28;1.27;;;1.17;;
11004;SDS011;5555;59.622;16.556;2023-04-07T09:25:55;2.30;;;1.23;;
11004;SDS011;5555;59.622;16.556;2023-04-07T09:28:23;1.20;;;1.10;;
11004;SDS011;5555;59.622;16.556;2023-04-07T09:30:52;2.13;;;1.13;;
11004;SDS011;5555;59.622;16.556;2023-04-07T09:33:25;0.83;;;0.83;;
11004;SDS011;5555;59.622;16.556;2023-04-07T09:35:52;2.40;;;1.13;;
11004;SDS011;5555;59.622;16.556;2023-04-07T09:38:18;1.77;;;1.30;;
11004;SDS011;5555;59.622;16.556;2023-04-07T09:40:43;1.50;;;1.40;;
11004;SDS011;5555;59.622;16.556;2023-04-07T09:43:14;1.73;;;1.10;;
11004;SDS011;5555;59.622;16.556;2023-04-07T09:45:42;4.87;;;1.20;;
11004;SDS011;5555;59.622;16.556;2023-04-07T09:48:18;1.60;;;1.23;;
11004;SDS011;5555;59.622;16.556;2023-04-07T09:50:44;1.07;;;1.07;;
11004;SDS011;5555;59.622;16.556;2023-04-07T09:53:14;1.20;;;1.10;;
11004;SDS011;5555;59.622;16.556;2023-04-07T09:55:40;1.73;;;0.73;;
11004;SDS011;5555;59.622;16.556;2023-04-07T09:58:07;2.03;;;1.00;;
11004;SDS011;5555;59.622;16.556;2023-04-07T10:00:36;1.70;;;0.93;;
11004;SDS011;5555;59.622;16.556;2023-04-07T10:03:02;1.17;;;1.00;;
11004;SDS011;5555;59.622;16.556;2023-04-07T10:05:28;5.63;;;1.10;;
11004;SDS011;5555;59.622;16.556;2023-04-07T10:07:55;2.60;;;0.87;;
11004;SDS011;5555;59.622;16.556;2023-04-07T10:10:21;2.37;;;1.47;;
11004;SDS011;5555;59.622;16.556;2023-04-07T10:12:46;2.17;;;1.03;;
11004;SDS011;5555;59.622;16.556;2023-04-07T10:15:16;1.00;;;0.90;;
11004;SDS011;5555;59.622;16.556;2023-04-07T10:17:44;1.90;;;1.10;;
11004;SDS011;5555;59.622;16.556;2023-04-07T10:20:12;0.90;;;0.80;;
11004;SDS011;5555;59.622;16.556;2023-04-07T10:22:39;0.83;;;0.83;;
11004;SDS011;5555;59.622;16.556;2023-04-07T10:25:10;3.93;;;0.97;;
11004;SDS011;5555;59.622;16.556;2023-04-07T10:27:52;2.20;;;1.20;;
11004;SDS011;5555;59.622;16.556;2023-04-07T10:30:25;1.43;;;1.17;;
11004;SDS011;5555;59.622;16.556;2023-04-07T10:32:54;1.20;;;0.97;;
11004;SDS011;5555;59.622;16.556;2023-04-07T10:35:20;1.40;;;1.00;;
11004;SDS011;5555;59.622;16.556;2023-04-07T10:40:31;1.30;;;1.10;;
11004;SDS011;5555;59.622;16.556;2023-04-07T10:42:57;1.00;;;0.90;;
11004;SDS011;5555;59.622;16.556;2023-04-07T10:45:50;1.50;;;1.00;;
11004;SDS011;5555;59.622;16.556;2023-04-07T10:48:18;2.17;;;1.03;;
11004;SDS011;5555;59.622;16.556;2023-04-07T10:50:45;1.13;;;0.70;;
11004;SDS011;5555;59.622;16.556;2023-04-07T10:53:36;1.63;;;0.90;;
11004;SDS011;5555;59.622;16.556;2023-04-07T10:56:02;1.47;;;0.90;;
11004;SDS011;5555;59.622;16.556;2023-04-07T10:58:28;1.20;;;1.00;;
11004;SDS011;5555;59.622;16.556;2023-04-07T11:03:51;1.53;;;1.00;;
11004;SDS011;5555;59.622;16.556;2023-04-07T11:06:21;3.50;;;1.10;;
11004;SDS011;5555;59.622;16.556;2023-04-07T11:08:47;4.47;;;1.03;;
11004;SDS011;5555;59.622;16.556;2023-04-07T11:11:14;2.17;;;0.80;;
11004;SDS011;5555;59.622;16.556;2023-04-07T11:13:44;2.67;;;1.07;;
11004;SDS011;5555;59.622;16.556;2023-04-07T11:16:11;3.57;;;1.90;;
11004;SDS011;5555;59.622;16.556;2023-04-07T11:18:38;4.27;;;1.63;;
11004;SDS011;5555;59.622;16.556;2023-04-07T11:21:05;4.23;;;1.90;;
11004;SDS011;5555;59.622;16.556;2023-04-07T11:23:38;7.23;;;2.43;;
11004;SDS011;5555;59.622;16.556;2023-04-07T11:26:05;2.80;;;2.47;;
11004;SDS011;5555;59.622;16.556;2023-04-07T11:28:31;3.90;;;2.47;;
11004;SDS011;5555;59.622;16.556;2023-04-07T11:30:57;8.00;;;2.40;;
11004;SDS011;5555;59.622;16.556;2023-04-07T11:33:27;5.83;;;2.77;;
11004;SDS011;5555;59.622;16.556;2023-04-07T11:35:55;6.80;;;2.93;;
11004;SDS011;5555;59.622;16.556;2023-04-07T11:38:26;3.13;;;2.20;;
11004;SDS011;5555;59.622;16.556;2023-04-07T11:41:11;6.80;;;2.50;;
11004;SDS011;5555;59.622;16.556;2023-04-07T11:43:39;4.73;;;2.33;;
11004;SDS011;5555;59.622;16.556;2023-04-07T11:46:13;5.77;;;2.53;;
11004;SDS011;5555;59.622;16.556;2023-04-07T11:48:40;7.20;;;2.87;;
11004;SDS011;5555;59.622;16.556;2023-04-07T11:51:17;3.57;;;2.20;;
11004;SDS011;5555;59.622;16.556;2023-04-07T11:53:45;4.63;;;2.57;;
11004;SDS011;5555;59.622;16.556;2023-04-07T11:56:14;8.00;;;2.33;;
11004;SDS011;5555;59.622;16.556;2023-04-07T11:58:48;6.97;;;2.13;;
11004;SDS011;5555;59.622;16.556;2023-04-07T12:01:14;10.37;;;2.60;;
11004;SDS011;5555;59.622;16.556;2023-04-07T12:04:02;6.90;;;2.37;;
11004;SDS011;5555;59.622;16.556;2023-04-07T12:06:28;3.53;;;2.03;;
11004;SDS011;5555;59.622;16.556;2023-04-07T12:08:58;3.33;;;2.13;;
11004;SDS011;5555;59.622;16.556;2023-04-07T12:11:27;3.77;;;1.97;;
11004;SDS011;5555;59.622;16.556;2023-04-07T12:13:53;5.33;;;2.20;;
11004;SDS011;5555;59.622;16.556;2023-04-07T12:16:20;4.10;;;2.37;;
11004;SDS011;5555;59.622;16.556;2023-04-07T12:18:46;6.53;;;2.43;;
11004;SDS011;5555;59.622;16.556;2023-04-07T12:21:12;8.43;;;2.53;;
11004;SDS011;5555;59.622;16.556;2023-04-07T12:23:38;10.27;;;2.60;;
11004;SDS011;5555;59.622;16.556;2023-04-07T12:26:03;5.50;;;2.57;;
11004;SDS011;5555;59.622;16.556;2023-04-07T12:28:29;5.33;;;2.30;;
11004;SDS011;5555;59.622;16.556;2023-04-07T12:30:55;4.30;;;2.40;;
11004;SDS011;5555;59.622;16.556;2023-04-07T12:33:20;3.77;;;2.23;;
11004;SDS011;5555;59.622;16.556;2023-04-07T12:35:47;4.37;;;2.33;;
11004;SDS011;5555;59.622;16.556;2023-04-07T12:38:13;5.63;;;2.53;;
11004;SDS011;5555;59.622;16.556;2023-04-07T12:40:38;4.37;;;2.37;;
11004;SDS011;5555;59.622;16.556;2023-04-07T12:43:04;6.93;;;2.50;;
11004;SDS011;5555;59.622;16.556;2023-04-07T12:45:30;8.03;;;2.27;;
11004;SDS011;5555;59.622;16.556;2023-04-07T12:47:56;8.60;;;2.30;;
11004;SDS011;5555;59.622;16.556;2023-04-07T12:50:22;4.50;;;1.97;;
11004;SDS011;5555;59.622;16.556;2023-04-07T12:52:49;4.03;;;2.40;;
11004;SDS011;5555;59.622;16.556;2023-04-07T12:55:15;4.93;;;2.10;;
11004;SDS011;5555;59.622;16.556;2023-04-07T12:57:41;4.83;;;2.13;;
11004;SDS011;5555;59.622;16.556;2023-04-07T13:00:08;7.10;;;2.23;;
11004;SDS011;5555;59.622;16.556;2023-04-07T13:02:34;2.90;;;2.13;;
11004;SDS011;5555;59.622;16.556;2023-04-07T13:05:01;4.00;;;1.80;;
11004;SDS011;5555;59.622;16.556;2023-04-07T13:07:28;6.97;;;2.30;;
11004;SDS011;5555;59.622;16.556;2023-04-07T13:09:54;6.70;;;2.50;;
11004;SDS011;5555;59.622;16.556;2023-04-07T13:12:21;8.67;;;2.10;;
11004;SDS011;5555;59.622;16.556;2023-04-07T13:14:47;3.80;;;2.07;;
11004;SDS011;5555;59.622;16.556;2023-04-07T13:17:13;3.60;;;2.10;;
11004;SDS011;5555;59.622;16.556;2023-04-07T13:19:38;5.23;;;2.10;;
11004;SDS011;5555;59.622;16.556;2023-04-07T13:22:04;17.53;;;3.10;;
11004;SDS011;5555;59.622;16.556;2023-04-07T13:24:30;5.27;;;2.33;;
11004;SDS011;5555;59.622;16.556;2023-04-07T13:26:56;4.27;;;1.93;;
11004;SDS011;5555;59.622;16.556;2023-04-07T13:29:22;4.10;;;2.20;;
11004;SDS011;5555;59.622;16.556;2023-04-07T13:31:48;9.87;;;2.20;;
11004;SDS011;5555;59.622;16.556;2023-04-07T13:34:13;6.07;;;1.87;;
11004;SDS011;5555;59.622;16.556;2023-04-07T13:36:40;3.20;;;1.97;;
11004;SDS011;5555;59.622;16.556;2023-04-07T13:39:05;7.50;;;2.20;;
11004;SDS011;5555;59.622;16.556;2023-04-07T13:41:32;9.50;;;1.93;;
11004;SDS011;5555;59.622;16.556;2023-04-07T13:43:58;5.03;;;2.00;;
11004;SDS011;5555;59.622;16.556;2023-04-07T13:46:24;7.00;;;2.20;;
11004;SDS011;5555;59.622;16.556;2023-04-07T13:48:51;7.30;;;2.20;;
11004;SDS011;5555;59.622;16.556;2023-04-07T13:51:17;4.53;;;2.57;;
11004;SDS011;5555;59.622;16.556;2023-04-07T13:53:42;5.70;;;2.00;;
11004;SDS011;5555;59.622;16.556;2023-04-07T13:56:09;6.17;;;2.23;;
11004;SDS011;5555;59.622;16.556;2023-04-07T13:58:34;3.83;;;1.80;;
11004;SDS011;5555;59.622;16.556;2023-04-07T14:01:01;10.27;;;2.60;;
11004;SDS011;5555;59.622;16.556;2023-04-07T14:03:27;8.23;;;2.50;;
11004;SDS011;5555;59.622;16.556;2023-04-07T14:05:53;7.80;;;2.40;;
11004;SDS011;5555;59.622;16.556;2023-04-07T14:08:19;5.10;;;1.90;;
11004;SDS011;5555;59.622;16.556;2023-04-07T14:10:47;3.03;;;1.80;;
11004;SDS011;5555;59.622;16.556;2023-04-07T14:13:13;7.60;;;2.20;;
11004;SDS011;5555;59.622;16.556;2023-04-07T14:15:39;4.63;;;2.00;;
11004;SDS011;5555;59.622;16.556;2023-04-07T14:18:05;3.70;;;2.07;;
11004;SDS011;5555;59.622;16.556;2023-04-07T14:20:31;9.83;;;2.57;;
11004;SDS011;5555;59.622;16.556;2023-04-07T14:22:57;4.07;;;1.90;;
11004;SDS011;5555;59.622;16.556;2023-04-07T14:25:23;4.93;;;2.17;;
11004;SDS011;5555;59.622;16.556;2023-04-07T14:27:48;6.37;;;2.27;;
11004;SDS011;5555;59.622;16.556;2023-04-07T14:30:15;4.37;;;2.10;;
11004;SDS011;5555;59.622;16.556;2023-04-07T14:32:40;3.63;;;2.00;;
11004;SDS011;5555;59.622;16.556;2023-04-07T14:35:06;6.53;;;1.83;;
11004;SDS011;5555;59.622;16.556;2023-04-07T14:37:32;4.17;;;2.10;;
11004;SDS011;5555;59.622;16.556;2023-04-07T14:39:59;5.80;;;2.13;;
11004;SDS011;5555;59.622;16.556;2023-04-07T14:42:26;3.57;;;1.93;;
11004;SDS011;5555;59.622;16.556;2023-04-07T14:44:53;7.37;;;2.23;;
11004;SDS011;5555;59.622;16.556;2023-04-07T14:47:19;6.47;;;1.97;;
11004;SDS011;5555;59.622;16.556;2023-04-07T14:49:45;6.80;;;1.80;;
11004;SDS011;5555;59.622;16.556;2023-04-07T14:52:11;7.10;;;2.20;;
11004;SDS011;5555;59.622;16.556;2023-04-07T14:54:38;9.53;;;2.30;;
11004;SDS011;5555;59.622;16.556;2023-04-07T14:57:04;10.83;;;2.60;;
11004;SDS011;5555;59.622;16.556;2023-04-07T14:59:29;9.07;;;2.40;;
11004;SDS011;5555;59.622;16.556;2023-04-07T15:01:55;16.43;;;2.93;;
11004;SDS011;5555;59.622;16.556;2023-04-07T15:04:21;4.57;;;1.80;;